sensor_id;sensor_type;location;lat;lon;timestamp;P1;durP1;ratioP1;P2;durP2;ratioP2
80183;SDS011;69682;52.138;5.440;2023-08-21T00:00:41;7.35;;;1.90;;
80183;SDS011;69682;52.138;5.440;2023-08-21T00:03:08;4.40;;;1.83;;
80183;SDS011;69682;52.138;5.440;2023-08-21T00:05:35;6.03;;;1.88;;
80183;SDS011;69682;52.138;5.440;2023-08-21T00:08:01;6.50;;;1.85;;
80183;SDS011;69682;52.138;5.440;2023-08-21T00:10:29;3.92;;;1.63;;
80183;SDS011;69682;52.138;5.440;2023-08-21T00:12:56;3.65;;;2.03;;
80183;SDS011;69682;52.138;5.440;2023-08-21T00:15:22;3.78;;;2.20;;
80183;SDS011;69682;52.138;5.440;2023-08-21T00:17:49;4.55;;;1.90;;
80183;SDS011;69682;52.138;5.440;2023-08-21T00:20:16;5.18;;;1.80;;
80183;SDS011;69682;52.138;5.440;2023-08-21T00:22:42;4.38;;;1.90;;
80183;SDS011;69682;52.138;5.440;2023-08-21T00:25:09;6.72;;;1.80;;
80183;SDS011;69682;52.138;5.440;2023-08-21T00:27:35;3.67;;;1.80;;
80183;SDS011;69682;52.138;5.440;2023-08-21T00:30:02;7.85;;;2.13;;
80183;SDS011;69682;52.138;5.440;2023-08-21T00:32:29;5.90;;;1.70;;
80183;SDS011;69682;52.138;5.440;2023-08-21T00:34:55;4.18;;;1.88;;
80183;SDS011;69682;52.138;5.440;2023-08-21T00:37:22;4.40;;;2.20;;
80183;SDS011;69682;52.138;5.440;2023-08-21T00:39:48;4.95;;;1.90;;
80183;SDS011;69682;52.138;5.440;2023-08-21T00:42:15;3.38;;;1.58;;
80183;SDS011;69682;52.138;5.440;2023-08-21T00:44:41;4.25;;;1.73;;
80183;SDS011;69682;52.138;5.440;2023-08-21T00:47:08;4.95;;;1.95;;
80183;SDS011;69682;52.138;5.440;2023-08-21T00:49:35;3.55;;;2.00;;
80183;SDS011;69682;52.138;5.440;2023-08-21T00:52:02;5.10;;;1.85;;
80183;SDS011;69682;52.138;5.440;2023-08-21T00:54:29;4.90;;;2.60;;
80183;SDS011;69682;52.138;5.440;2023-08-21T00:56:56;5.80;;;1.92;;
80183;SDS011;69682;52.138;5.440;2023-08-21T00:59:22;4.78;;;2.78;;
80183;SDS011;69682;52.138;5.440;2023-08-21T01:01:49;4.75;;;2.28;;
80183;SDS011;69682;52.138;5.440;2023-08-21T01:04:16;5.32;;;1.95;;
80183;SDS011;69682;52.138;5.440;2023-08-21T01:06:43;5.25;;;2.22;;
80183;SDS011;69682;52.138;5.440;2023-08-21T01:09:16;4.18;;;2.13;;
80183;SDS011;69682;52.138;5.440;2023-08-21T01:14:35;2.78;;;1.98;;
80183;SDS011;69682;52.138;5.440;2023-08-21T01:17:09;7.32;;;2.17;;
80183;SDS011;69682;52.138;5.440;2023-08-21T01:19:43;5.22;;;1.88;;
80183;SDS011;69682;52.138;5.440;2023-08-21T01:22:14;3.00;;;1.83;;
80183;SDS011;69682;52.138;5.440;2023-08-21T01:24:40;2.10;;;1.77;;
80183;SDS011;69682;52.138;5.440;2023-08-21T01:27:07;5.10;;;2.15;;
80183;SDS011;69682;52.138;5.440;2023-08-21T01:29:35;5.53;;;1.80;;
80183;SDS011;69682;52.138;5.440;2023-08-21T01:32:09;4.60;;;1.92;;
80183;SDS011;69682;52.138;5.440;2023-08-21T01:34:45;4.38;;;2.10;;
80183;SDS011;69682;52.138;5.440;2023-08-21T01:37:13;4.32;;;2.15;;
80183;SDS011;69682;52.138;5.440;2023-08-21T01:39:40;6.15;;;2.20;;
80183;SDS011;69682;52.138;5.440;2023-08-21T01:42:07;4.68;;;1.98;;
80183;SDS011;69682;52.138;5.440;2023-08-21T01:44:33;2.97;;;2.10;;
80183;SDS011;69682;52.138;5.440;2023-08-21T01:47:00;3.28;;;1.77;;
80183;SDS011;69682;52.138;5.440;2023-08-21T01:49:26;4.65;;;2.17;;
80183;SDS011;69682;52.138;5.440;2023-08-21T01:51:53;6.38;;;1.90;;
80183;SDS011;69682;52.138;5.440;2023-08-21T01:54:19;6.90;;;1.90;;
80183;SDS011;69682;52.138;5.440;2023-08-21T01:56:46;3.92;;;2.00;;
80183;SDS011;69682;52.138;5.440;2023-08-21T01:59:12;4.80;;;2.00;;
80183;SDS011;69682;52.138;5.440;2023-08-21T02:01:39;6.50;;;1.92;;
80183;SDS011;69682;52.138;5.440;2023-08-21T02:04:06;4.25;;;1.92;;
80183;SDS011;69682;52.138;5.440;2023-08-21T02:06:32;6.13;;;2.25;;
80183;SDS011;69682;52.138;5.440;2023-08-21T02:08:59;3.22;;;2.13;;
80183;SDS011;69682;52.138;5.440;2023-08-21T02:11:25;5.43;;;1.90;;
80183;SDS011;69682;52.138;5.440;2023-08-21T02:13:52;2.97;;;2.05;;
80183;SDS011;69682;52.138;5.440;2023-08-21T02:16:18;3.55;;;1.92;;
80183;SDS011;69682;52.138;5.440;2023-08-21T02:18:46;4.15;;;1.73;;
80183;SDS011;69682;52.138;5.440;2023-08-21T02:21:13;5.40;;;2.03;;
80183;SDS011;69682;52.138;5.440;2023-08-21T02:23:39;5.47;;;1.92;;
80183;SDS011;69682;52.138;5.440;2023-08-21T02:26:06;3.30;;;2.05;;
80183;SDS011;69682;52.138;5.440;2023-08-21T02:28:32;4.35;;;2.17;;
80183;SDS011;69682;52.138;5.440;2023-08-21T02:30:59;4.32;;;2.10;;
80183;SDS011;69682;52.138;5.440;2023-08-21T02:33:26;4.03;;;2.38;;
80183;SDS011;69682;52.138;5.440;2023-08-21T02:35:52;3.42;;;2.45;;
80183;SDS011;69682;52.138;5.440;2023-08-21T02:38:19;5.20;;;2.15;;
80183;SDS011;69682;52.138;5.440;2023-08-21T02:40:46;5.65;;;1.92;;
80183;SDS011;69682;52.138;5.440;2023-08-21T02:45:40;3.50;;;2.55;;
80183;SDS011;69682;52.138;5.440;2023-08-21T02:48:07;5.13;;;2.88;;
80183;SDS011;69682;52.138;5.440;2023-08-21T02:50:34;6.88;;;2.10;;
80183;SDS011;69682;52.138;5.440;2023-08-21T02:53:00;5.20;;;2.22;;
80183;SDS011;69682;52.138;5.440;2023-08-21T02:55:27;5.15;;;2.45;;
80183;SDS011;69682;52.138;5.440;2023-08-21T02:57:54;5.15;;;2.45;;
80183;SDS011;69682;52.138;5.440;2023-08-21T03:00:20;6.18;;;2.10;;
80183;SDS011;69682;52.138;5.440;2023-08-21T03:02:47;5.30;;;2.67;;
80183;SDS011;69682;52.138;5.440;2023-08-21T03:05:13;3.88;;;2.22;;
80183;SDS011;69682;52.138;5.440;2023-08-21T03:07:40;4.65;;;2.10;;
80183;SDS011;69682;52.138;5.440;2023-08-21T03:10:07;6.07;;;2.85;;
80183;SDS011;69682;52.138;5.440;2023-08-21T03:12:34;5.07;;;2.28;;
80183;SDS011;69682;52.138;5.440;2023-08-21T03:15:02;6.05;;;2.50;;
80183;SDS011;69682;52.138;5.440;2023-08-21T03:17:29;5.53;;;2.53;;
80183;SDS011;69682;52.138;5.440;2023-08-21T03:19:56;3.35;;;2.20;;
80183;SDS011;69682;52.138;5.440;2023-08-21T03:22:22;4.05;;;2.28;;
80183;SDS011;69682;52.138;5.440;2023-08-21T03:24:49;5.22;;;2.25;;
80183;SDS011;69682;52.138;5.440;2023-08-21T03:27:16;4.43;;;2.55;;
80183;SDS011;69682;52.138;5.440;2023-08-21T03:29:43;3.17;;;2.20;;
80183;SDS011;69682;52.138;5.440;2023-08-21T03:32:17;5.50;;;2.17;;
80183;SDS011;69682;52.138;5.440;2023-08-21T03:34:44;7.88;;;2.53;;
80183;SDS011;69682;52.138;5.440;2023-08-21T03:37:11;8.40;;;2.53;;
80183;SDS011;69682;52.138;5.440;2023-08-21T03:39:38;3.70;;;2.13;;
80183;SDS011;69682;52.138;5.440;2023-08-21T03:42:05;5.03;;;2.25;;
80183;SDS011;69682;52.138;5.440;2023-08-21T03:44:32;5.72;;;2.47;;
80183;SDS011;69682;52.138;5.440;2023-08-21T03:49:26;5.40;;;2.42;;
80183;SDS011;69682;52.138;5.440;2023-08-21T03:51:52;6.85;;;2.63;;
80183;SDS011;69682;52.138;5.440;2023-08-21T03:54:19;4.13;;;2.20;;
80183;SDS011;69682;52.138;5.440;2023-08-21T03:56:45;4.03;;;2.60;;
80183;SDS011;69682;52.138;5.440;2023-08-21T03:59:12;4.47;;;2.03;;
80183;SDS011;69682;52.138;5.440;2023-08-21T04:01:39;4.68;;;2.42;;
80183;SDS011;69682;52.138;5.440;2023-08-21T04:04:05;5.18;;;2.13;;
80183;SDS011;69682;52.138;5.440;2023-08-21T04:06:32;3.60;;;2.28;;
80183;SDS011;69682;52.138;5.440;2023-08-21T04:08:59;4.40;;;2.08;;
80183;SDS011;69682;52.138;5.440;2023-08-21T04:11:25;5.50;;;2.20;;
80183;SDS011;69682;52.138;5.440;2023-08-21T04:13:52;3.17;;;2.42;;
80183;SDS011;69682;52.138;5.440;2023-08-21T04:16:18;3.95;;;1.70;;
80183;SDS011;69682;52.138;5.440;2023-08-21T04:18:47;3.25;;;2.10;;
80183;SDS011;69682;52.138;5.440;2023-08-21T04:21:14;5.15;;;2.22;;
80183;SDS011;69682;52.138;5.440;2023-08-21T04:23:41;2.33;;;1.45;;
80183;SDS011;69682;52.138;5.440;2023-08-21T04:26:07;4.55;;;1.90;;
80183;SDS011;69682;52.138;5.440;2023-08-21T04:28:35;3.20;;;2.10;;
80183;SDS011;69682;52.138;5.440;2023-08-21T04:31:04;3.65;;;1.85;;
80183;SDS011;69682;52.138;5.440;2023-08-21T04:33:31;4.70;;;2.33;;
80183;SDS011;69682;52.138;5.440;2023-08-21T04:35:58;5.55;;;1.70;;
80183;SDS011;69682;52.138;5.440;2023-08-21T04:38:25;4.20;;;1.73;;
80183;SDS011;69682;52.138;5.440;2023-08-21T04:40:52;3.33;;;1.63;;
80183;SDS011;69682;52.138;5.440;2023-08-21T04:43:18;5.28;;;2.05;;
80183;SDS011;69682;52.138;5.440;2023-08-21T04:45:49;3.53;;;1.58;;
80183;SDS011;69682;52.138;5.440;2023-08-21T04:48:16;3.88;;;1.70;;
80183;SDS011;69682;52.138;5.440;2023-08-21T04:50:43;2.75;;;1.55;;
80183;SDS011;69682;52.138;5.440;2023-08-21T04:53:11;5.93;;;2.22;;
80183;SDS011;69682;52.138;5.440;2023-08-21T04:55:39;4.05;;;2.03;;
80183;SDS011;69682;52.138;5.440;2023-08-21T04:58:07;3.78;;;1.90;;
80183;SDS011;69682;52.138;5.440;2023-08-21T05:00:33;5.82;;;2.05;;
80183;SDS011;69682;52.138;5.440;2023-08-21T05:03:00;5.15;;;1.90;;
80183;SDS011;69682;52.138;5.440;2023-08-21T05:05:27;6.88;;;4.30;;
80183;SDS011;69682;52.138;5.440;2023-08-21T05:07:54;4.90;;;2.45;;
80183;SDS011;69682;52.138;5.440;2023-08-21T05:10:20;8.20;;;2.75;;
80183;SDS011;69682;52.138;5.440;2023-08-21T05:12:47;4.30;;;2.38;;
80183;SDS011;69682;52.138;5.440;2023-08-21T05:15:13;3.83;;;2.28;;
80183;SDS011;69682;52.138;5.440;2023-08-21T05:17:41;4.70;;;2.88;;
80183;SDS011;69682;52.138;5.440;2023-08-21T05:20:07;8.35;;;2.80;;
80183;SDS011;69682;52.138;5.440;2023-08-21T05:22:34;6.55;;;2.35;;
80183;SDS011;69682;52.138;5.440;2023-08-21T05:25:02;4.03;;;2.40;;
80183;SDS011;69682;52.138;5.440;2023-08-21T05:27:28;6.53;;;3.45;;
80183;SDS011;69682;52.138;5.440;2023-08-21T05:29:55;5.15;;;2.83;;
80183;SDS011;69682;52.138;5.440;2023-08-21T05:32:21;4.68;;;3.17;;
80183;SDS011;69682;52.138;5.440;2023-08-21T05:34:48;7.50;;;3.08;;
80183;SDS011;69682;52.138;5.440;2023-08-21T05:37:15;9.25;;;3.42;;
80183;SDS011;69682;52.138;5.440;2023-08-21T05:39:41;7.10;;;3.40;;
80183;SDS011;69682;52.138;5.440;2023-08-21T05:42:08;5.00;;;2.95;;
80183;SDS011;69682;52.138;5.440;2023-08-21T05:44:35;7.13;;;3.42;;
80183;SDS011;69682;52.138;5.440;2023-08-21T05:47:01;7.20;;;3.25;;
80183;SDS011;69682;52.138;5.440;2023-08-21T05:49:27;7.32;;;3.50;;
80183;SDS011;69682;52.138;5.440;2023-08-21T05:51:55;9.32;;;3.90;;
80183;SDS011;69682;52.138;5.440;2023-08-21T05:54:25;8.40;;;4.50;;
80183;SDS011;69682;52.138;5.440;2023-08-21T05:56:51;7.22;;;3.80;;
80183;SDS011;69682;52.138;5.440;2023-08-21T05:59:29;5.13;;;3.60;;
80183;SDS011;69682;52.138;5.440;2023-08-21T06:01:57;7.80;;;3.67;;
80183;SDS011;69682;52.138;5.440;2023-08-21T06:04:23;8.80;;;3.63;;
80183;SDS011;69682;52.138;5.440;2023-08-21T06:06:51;8.32;;;3.30;;
80183;SDS011;69682;52.138;5.440;2023-08-21T06:09:17;6.20;;;3.63;;
80183;SDS011;69682;52.138;5.440;2023-08-21T06:11:44;4.93;;;3.45;;
80183;SDS011;69682;52.138;5.440;2023-08-21T06:14:10;5.90;;;3.40;;
80183;SDS011;69682;52.138;5.440;2023-08-21T06:16:37;9.38;;;4.20;;
80183;SDS011;69682;52.138;5.440;2023-08-21T06:19:04;4.50;;;3.42;;
80183;SDS011;69682;52.138;5.440;2023-08-21T06:21:30;8.68;;;3.63;;
80183;SDS011;69682;52.138;5.440;2023-08-21T06:23:57;8.18;;;3.13;;
80183;SDS011;69682;52.138;5.440;2023-08-21T06:26:24;8.55;;;3.50;;
80183;SDS011;69682;52.138;5.440;2023-08-21T06:28:51;8.85;;;3.72;;
80183;SDS011;69682;52.138;5.440;2023-08-21T06:31:17;5.75;;;3.55;;
80183;SDS011;69682;52.138;5.440;2023-08-21T06:33:44;7.85;;;3.45;;
80183;SDS011;69682;52.138;5.440;2023-08-21T06:36:11;9.60;;;3.80;;
80183;SDS011;69682;52.138;5.440;2023-08-21T06:38:37;6.78;;;3.58;;
80183;SDS011;69682;52.138;5.440;2023-08-21T06:41:04;5.38;;;3.80;;
80183;SDS011;69682;52.138;5.440;2023-08-21T06:43:37;4.93;;;3.33;;
80183;SDS011;69682;52.138;5.440;2023-08-21T06:46:07;7.00;;;3.58;;
80183;SDS011;69682;52.138;5.440;2023-08-21T06:48:37;6.28;;;3.13;;
80183;SDS011;69682;52.138;5.440;2023-08-21T06:51:09;5.00;;;3.13;;
80183;SDS011;69682;52.138;5.440;2023-08-21T06:53:36;7.28;;;3.60;;
80183;SDS011;69682;52.138;5.440;2023-08-21T06:56:03;10.65;;;3.80;;
80183;SDS011;69682;52.138;5.440;2023-08-21T06:58:30;5.32;;;2.63;;
80183;SDS011;69682;52.138;5.440;2023-08-21T07:00:56;5.13;;;2.22;;
80183;SDS011;69682;52.138;5.440;2023-08-21T07:03:23;8.10;;;2.20;;
80183;SDS011;69682;52.138;5.440;2023-08-21T07:05:53;5.05;;;2.05;;
80183;SDS011;69682;52.138;5.440;2023-08-21T07:08:22;5.50;;;1.83;;
80183;SDS011;69682;52.138;5.440;2023-08-21T07:10:49;3.38;;;1.73;;
80183;SDS011;69682;52.138;5.440;2023-08-21T07:13:16;3.90;;;2.03;;
80183;SDS011;69682;52.138;5.440;2023-08-21T07:15:43;4.35;;;1.63;;
80183;SDS011;69682;52.138;5.440;2023-08-21T07:18:09;5.80;;;1.70;;
80183;SDS011;69682;52.138;5.440;2023-08-21T07:20:36;5.28;;;1.77;;
80183;SDS011;69682;52.138;5.440;2023-08-21T07:23:03;6.07;;;2.00;;
80183;SDS011;69682;52.138;5.440;2023-08-21T07:25:29;6.72;;;2.03;;
80183;SDS011;69682;52.138;5.440;2023-08-21T07:27:56;4.32;;;2.05;;
80183;SDS011;69682;52.138;5.440;2023-08-21T07:30:23;4.55;;;1.70;;
80183;SDS011;69682;52.138;5.440;2023-08-21T07:32:49;3.70;;;1.35;;
80183;SDS011;69682;52.138;5.440;2023-08-21T07:35:16;3.63;;;1.42;;
80183;SDS011;69682;52.138;5.440;2023-08-21T07:37:43;4.35;;;1.63;;
80183;SDS011;69682;52.138;5.440;2023-08-21T07:42:37;5.18;;;1.67;;
80183;SDS011;69682;52.138;5.440;2023-08-21T07:45:04;4.00;;;1.80;;
80183;SDS011;69682;52.138;5.440;2023-08-21T07:47:32;4.60;;;1.75;;
80183;SDS011;69682;52.138;5.440;2023-08-21T07:50:02;3.70;;;1.48;;
80183;SDS011;69682;52.138;5.440;2023-08-21T07:52:29;4.72;;;1.60;;
80183;SDS011;69682;52.138;5.440;2023-08-21T07:54:55;6.75;;;2.67;;
80183;SDS011;69682;52.138;5.440;2023-08-21T07:57:22;4.30;;;1.30;;
80183;SDS011;69682;52.138;5.440;2023-08-21T07:59:48;3.55;;;1.52;;
80183;SDS011;69682;52.138;5.440;2023-08-21T08:02:15;2.75;;;1.38;;
80183;SDS011;69682;52.138;5.440;2023-08-21T08:04:43;5.05;;;1.38;;
80183;SDS011;69682;52.138;5.440;2023-08-21T08:07:09;3.75;;;1.48;;
80183;SDS011;69682;52.138;5.440;2023-08-21T08:09:36;4.07;;;1.27;;
80183;SDS011;69682;52.138;5.440;2023-08-21T08:12:03;3.88;;;1.30;;
80183;SDS011;69682;52.138;5.440;2023-08-21T08:14:33;3.35;;;1.10;;
80183;SDS011;69682;52.138;5.440;2023-08-21T08:17:00;4.85;;;1.20;;
80183;SDS011;69682;52.138;5.440;2023-08-21T08:19:27;2.95;;;1.15;;
80183;SDS011;69682;52.138;5.440;2023-08-21T08:21:54;4.68;;;2.03;;
80183;SDS011;69682;52.138;5.440;2023-08-21T08:24:20;6.03;;;1.25;;
80183;SDS011;69682;52.138;5.440;2023-08-21T08:26:47;3.50;;;1.38;;
80183;SDS011;69682;52.138;5.440;2023-08-21T08:29:14;3.53;;;1.40;;
80183;SDS011;69682;52.138;5.440;2023-08-21T08:31:40;5.93;;;1.23;;
80183;SDS011;69682;52.138;5.440;2023-08-21T08:34:07;6.72;;;1.30;;
80183;SDS011;69682;52.138;5.440;2023-08-21T08:36:34;3.55;;;1.70;;
80183;SDS011;69682;52.138;5.440;2023-08-21T08:39:01;4.38;;;1.50;;
80183;SDS011;69682;52.138;5.440;2023-08-21T08:41:38;6.05;;;1.42;;
80183;SDS011;69682;52.138;5.440;2023-08-21T08:44:12;8.18;;;1.30;;
80183;SDS011;69682;52.138;5.440;2023-08-21T08:46:40;4.35;;;1.55;;
80183;SDS011;69682;52.138;5.440;2023-08-21T08:49:08;8.00;;;1.20;;
80183;SDS011;69682;52.138;5.440;2023-08-21T08:51:34;10.73;;;1.40;;
80183;SDS011;69682;52.138;5.440;2023-08-21T08:54:01;2.00;;;1.25;;
80183;SDS011;69682;52.138;5.440;2023-08-21T08:56:28;6.65;;;1.50;;
80183;SDS011;69682;52.138;5.440;2023-08-21T08:58:55;3.30;;;1.50;;
80183;SDS011;69682;52.138;5.440;2023-08-21T09:01:21;5.88;;;1.23;;
80183;SDS011;69682;52.138;5.440;2023-08-21T09:03:48;4.32;;;1.42;;
80183;SDS011;69682;52.138;5.440;2023-08-21T09:06:16;3.75;;;1.00;;
80183;SDS011;69682;52.138;5.440;2023-08-21T09:08:56;4.35;;;1.10;;
80183;SDS011;69682;52.138;5.440;2023-08-21T09:11:23;4.50;;;1.80;;
80183;SDS011;69682;52.138;5.440;2023-08-21T09:13:50;5.63;;;2.20;;
80183;SDS011;69682;52.138;5.440;2023-08-21T09:16:19;5.88;;;1.67;;
80183;SDS011;69682;52.138;5.440;2023-08-21T09:18:49;2.85;;;1.40;;
80183;SDS011;69682;52.138;5.440;2023-08-21T09:21:20;4.72;;;1.08;;
80183;SDS011;69682;52.138;5.440;2023-08-21T09:23:48;4.13;;;1.15;;
80183;SDS011;69682;52.138;5.440;2023-08-21T09:26:22;2.80;;;0.98;;
80183;SDS011;69682;52.138;5.440;2023-08-21T09:28:50;5.07;;;0.98;;
80183;SDS011;69682;52.138;5.440;2023-08-21T09:31:29;2.53;;;1.20;;
80183;SDS011;69682;52.138;5.440;2023-08-21T09:33:58;4.20;;;1.15;;
80183;SDS011;69682;52.138;5.440;2023-08-21T09:36:27;2.83;;;1.50;;
80183;SDS011;69682;52.138;5.440;2023-08-21T09:38:54;1.40;;;1.00;;
80183;SDS011;69682;52.138;5.440;2023-08-21T09:41:22;5.22;;;1.23;;
80183;SDS011;69682;52.138;5.440;2023-08-21T09:43:50;9.93;;;1.70;;
80183;SDS011;69682;52.138;5.440;2023-08-21T09:46:17;5.22;;;1.38;;
80183;SDS011;69682;52.138;5.440;2023-08-21T09:48:51;2.90;;;1.33;;
80183;SDS011;69682;52.138;5.440;2023-08-21T09:51:18;2.75;;;0.90;;
80183;SDS011;69682;52.138;5.440;2023-08-21T09:53:45;2.25;;;1.10;;
80183;SDS011;69682;52.138;5.440;2023-08-21T09:56:13;3.60;;;1.00;;
80183;SDS011;69682;52.138;5.440;2023-08-21T09:58:40;3.42;;;0.98;;
80183;SDS011;69682;52.138;5.440;2023-08-21T10:01:07;3.97;;;1.00;;
80183;SDS011;69682;52.138;5.440;2023-08-21T10:03:41;2.35;;;1.02;;
80183;SDS011;69682;52.138;5.440;2023-08-21T10:06:08;2.17;;;0.93;;
80183;SDS011;69682;52.138;5.440;2023-08-21T10:08:37;2.05;;;0.93;;
80183;SDS011;69682;52.138;5.440;2023-08-21T10:11:06;2.67;;;1.52;;
80183;SDS011;69682;52.138;5.440;2023-08-21T10:13:38;2.95;;;0.75;;
80183;SDS011;69682;52.138;5.440;2023-08-21T10:16:05;4.78;;;1.35;;
80183;SDS011;69682;52.138;5.440;2023-08-21T10:18:36;3.58;;;1.20;;
80183;SDS011;69682;52.138;5.440;2023-08-21T10:21:12;3.53;;;1.02;;
80183;SDS011;69682;52.138;5.440;2023-08-21T10:23:41;7.13;;;1.20;;
80183;SDS011;69682;52.138;5.440;2023-08-21T10:26:10;6.20;;;1.23;;
80183;SDS011;69682;52.138;5.440;2023-08-21T10:28:41;2.42;;;1.33;;
80183;SDS011;69682;52.138;5.440;2023-08-21T10:33:53;2.92;;;1.70;;
80183;SDS011;69682;52.138;5.440;2023-08-21T10:39:12;2.67;;;1.55;;
80183;SDS011;69682;52.138;5.440;2023-08-21T10:41:39;3.17;;;1.23;;
80183;SDS011;69682;52.138;5.440;2023-08-21T10:44:06;3.00;;;1.27;;
80183;SDS011;69682;52.138;5.440;2023-08-21T10:46:50;3.45;;;1.08;;
80183;SDS011;69682;52.138;5.440;2023-08-21T10:49:17;1.67;;;0.65;;
80183;SDS011;69682;52.138;5.440;2023-08-21T10:51:44;2.33;;;0.80;;
80183;SDS011;69682;52.138;5.440;2023-08-21T10:54:11;3.08;;;1.40;;
80183;SDS011;69682;52.138;5.440;2023-08-21T10:56:39;2.03;;;1.00;;
80183;SDS011;69682;52.138;5.440;2023-08-21T10:59:05;4.28;;;1.00;;
80183;SDS011;69682;52.138;5.440;2023-08-21T11:01:44;2.40;;;1.00;;
80183;SDS011;69682;52.138;5.440;2023-08-21T11:04:11;4.70;;;1.38;;
80183;SDS011;69682;52.138;5.440;2023-08-21T11:06:39;4.25;;;0.80;;
80183;SDS011;69682;52.138;5.440;2023-08-21T11:11:38;3.13;;;0.77;;
80183;SDS011;69682;52.138;5.440;2023-08-21T11:14:05;1.38;;;0.85;;
80183;SDS011;69682;52.138;5.440;2023-08-21T11:16:31;5.50;;;1.42;;
80183;SDS011;69682;52.138;5.440;2023-08-21T11:18:58;3.35;;;1.27;;
80183;SDS011;69682;52.138;5.440;2023-08-21T11:21:30;2.10;;;0.70;;
80183;SDS011;69682;52.138;5.440;2023-08-21T11:23:57;3.30;;;0.80;;
80183;SDS011;69682;52.138;5.440;2023-08-21T11:26:24;4.80;;;0.80;;
80183;SDS011;69682;52.138;5.440;2023-08-21T11:31:17;2.63;;;0.73;;
80183;SDS011;69682;52.138;5.440;2023-08-21T11:33:50;2.47;;;0.80;;
80183;SDS011;69682;52.138;5.440;2023-08-21T11:36:17;4.05;;;1.63;;
80183;SDS011;69682;52.138;5.440;2023-08-21T11:38:57;2.55;;;0.80;;
80183;SDS011;69682;52.138;5.440;2023-08-21T11:41:25;2.72;;;0.90;;
80183;SDS011;69682;52.138;5.440;2023-08-21T11:43:52;1.38;;;0.57;;
80183;SDS011;69682;52.138;5.440;2023-08-21T11:46:19;1.73;;;0.77;;
80183;SDS011;69682;52.138;5.440;2023-08-21T11:48:45;2.75;;;0.85;;
80183;SDS011;69682;52.138;5.440;2023-08-21T11:51:12;3.05;;;0.80;;
80183;SDS011;69682;52.138;5.440;2023-08-21T11:53:39;3.17;;;1.00;;
80183;SDS011;69682;52.138;5.440;2023-08-21T11:56:10;5.60;;;1.88;;
80183;SDS011;69682;52.138;5.440;2023-08-21T11:58:39;2.38;;;0.77;;
80183;SDS011;69682;52.138;5.440;2023-08-21T12:01:06;1.73;;;0.70;;
80183;SDS011;69682;52.138;5.440;2023-08-21T12:03:37;1.60;;;0.70;;
80183;SDS011;69682;52.138;5.440;2023-08-21T12:06:08;1.98;;;0.75;;
80183;SDS011;69682;52.138;5.440;2023-08-21T12:08:36;2.88;;;0.80;;
80183;SDS011;69682;52.138;5.440;2023-08-21T12:11:03;1.10;;;0.63;;
80183;SDS011;69682;52.138;5.440;2023-08-21T12:13:30;2.67;;;0.85;;
80183;SDS011;69682;52.138;5.440;2023-08-21T12:16:00;4.53;;;0.80;;
80183;SDS011;69682;52.138;5.440;2023-08-21T12:18:28;1.50;;;0.60;;
80183;SDS011;69682;52.138;5.440;2023-08-21T12:20:55;1.92;;;0.98;;
80183;SDS011;69682;52.138;5.440;2023-08-21T12:23:21;3.38;;;0.88;;
80183;SDS011;69682;52.138;5.440;2023-08-21T12:25:48;2.42;;;0.90;;
80183;SDS011;69682;52.138;5.440;2023-08-21T12:28:15;1.30;;;0.65;;
80183;SDS011;69682;52.138;5.440;2023-08-21T12:30:41;2.63;;;0.80;;
80183;SDS011;69682;52.138;5.440;2023-08-21T12:33:08;1.92;;;0.70;;
80183;SDS011;69682;52.138;5.440;2023-08-21T12:35:48;3.10;;;1.25;;
80183;SDS011;69682;52.138;5.440;2023-08-21T12:38:15;2.92;;;0.82;;
80183;SDS011;69682;52.138;5.440;2023-08-21T12:40:42;3.95;;;1.00;;
80183;SDS011;69682;52.138;5.440;2023-08-21T12:43:08;3.45;;;0.98;;
80183;SDS011;69682;52.138;5.440;2023-08-21T12:45:35;1.92;;;0.85;;
80183;SDS011;69682;52.138;5.440;2023-08-21T12:48:03;3.30;;;1.40;;
80183;SDS011;69682;52.138;5.440;2023-08-21T12:50:30;3.20;;;1.10;;
80183;SDS011;69682;52.138;5.440;2023-08-21T12:52:57;4.93;;;1.20;;
80183;SDS011;69682;52.138;5.440;2023-08-21T12:55:24;2.90;;;1.05;;
80183;SDS011;69682;52.138;5.440;2023-08-21T12:57:50;2.75;;;1.15;;
80183;SDS011;69682;52.138;5.440;2023-08-21T13:00:17;2.10;;;1.20;;
80183;SDS011;69682;52.138;5.440;2023-08-21T13:02:44;3.17;;;1.20;;
80183;SDS011;69682;52.138;5.440;2023-08-21T13:05:11;1.85;;;1.00;;
80183;SDS011;69682;52.138;5.440;2023-08-21T13:07:37;2.20;;;0.90;;
80183;SDS011;69682;52.138;5.440;2023-08-21T13:10:04;4.53;;;1.50;;
80183;SDS011;69682;52.138;5.440;2023-08-21T13:12:31;2.60;;;0.93;;
80183;SDS011;69682;52.138;5.440;2023-08-21T13:14:58;3.60;;;1.15;;
80183;SDS011;69682;52.138;5.440;2023-08-21T13:17:25;2.85;;;1.02;;
80183;SDS011;69682;52.138;5.440;2023-08-21T13:19:51;2.10;;;0.80;;
80183;SDS011;69682;52.138;5.440;2023-08-21T13:22:18;3.22;;;1.20;;
80183;SDS011;69682;52.138;5.440;2023-08-21T13:24:45;3.75;;;1.20;;
80183;SDS011;69682;52.138;5.440;2023-08-21T13:27:11;1.88;;;1.00;;
80183;SDS011;69682;52.138;5.440;2023-08-21T13:29:38;1.92;;;1.20;;
80183;SDS011;69682;52.138;5.440;2023-08-21T13:32:06;3.83;;;1.45;;
80183;SDS011;69682;52.138;5.440;2023-08-21T13:34:33;2.40;;;0.88;;
80183;SDS011;69682;52.138;5.440;2023-08-21T13:36:59;2.05;;;0.90;;
80183;SDS011;69682;52.138;5.440;2023-08-21T13:39:26;1.80;;;0.88;;
80183;SDS011;69682;52.138;5.440;2023-08-21T13:41:52;3.35;;;1.02;;
80183;SDS011;69682;52.138;5.440;2023-08-21T13:44:19;2.90;;;0.88;;
80183;SDS011;69682;52.138;5.440;2023-08-21T13:46:45;3.08;;;0.90;;
80183;SDS011;69682;52.138;5.440;2023-08-21T13:49:12;3.55;;;0.80;;
80183;SDS011;69682;52.138;5.440;2023-08-21T13:51:39;1.95;;;1.00;;
80183;SDS011;69682;52.138;5.440;2023-08-21T13:54:06;2.53;;;0.98;;
80183;SDS011;69682;52.138;5.440;2023-08-21T13:56:33;3.67;;;0.98;;
80183;SDS011;69682;52.138;5.440;2023-08-21T13:59:00;4.43;;;1.20;;
80183;SDS011;69682;52.138;5.440;2023-08-21T14:01:26;4.22;;;0.93;;
80183;SDS011;69682;52.138;5.440;2023-08-21T14:03:53;1.63;;;0.90;;
80183;SDS011;69682;52.138;5.440;2023-08-21T14:06:19;3.28;;;1.15;;
80183;SDS011;69682;52.138;5.440;2023-08-21T14:08:46;1.73;;;0.85;;
80183;SDS011;69682;52.138;5.440;2023-08-21T14:11:13;3.40;;;0.95;;
80183;SDS011;69682;52.138;5.440;2023-08-21T14:13:39;2.25;;;1.13;;
80183;SDS011;69682;52.138;5.440;2023-08-21T14:16:06;3.63;;;1.40;;
80183;SDS011;69682;52.138;5.440;2023-08-21T14:18:33;2.85;;;0.82;;
80183;SDS011;69682;52.138;5.440;2023-08-21T14:20:59;2.47;;;1.10;;
80183;SDS011;69682;52.138;5.440;2023-08-21T14:23:26;3.22;;;0.80;;
80183;SDS011;69682;52.138;5.440;2023-08-21T14:25:52;2.47;;;0.93;;
80183;SDS011;69682;52.138;5.440;2023-08-21T14:28:19;1.35;;;0.90;;
80183;SDS011;69682;52.138;5.440;2023-08-21T14:30:45;2.53;;;1.08;;
80183;SDS011;69682;52.138;5.440;2023-08-21T14:33:13;4.15;;;0.90;;
80183;SDS011;69682;52.138;5.440;2023-08-21T14:35:40;4.00;;;1.05;;
80183;SDS011;69682;52.138;5.440;2023-08-21T14:38:06;2.38;;;0.93;;
80183;SDS011;69682;52.138;5.440;2023-08-21T14:40:33;1.85;;;0.88;;
80183;SDS011;69682;52.138;5.440;2023-08-21T14:42:59;1.77;;;0.57;;
80183;SDS011;69682;52.138;5.440;2023-08-21T14:45:26;2.42;;;1.25;;
80183;SDS011;69682;52.138;5.440;2023-08-21T14:47:53;2.53;;;1.13;;
80183;SDS011;69682;52.138;5.440;2023-08-21T14:50:20;2.10;;;1.35;;
80183;SDS011;69682;52.138;5.440;2023-08-21T14:52:47;1.77;;;0.73;;
80183;SDS011;69682;52.138;5.440;2023-08-21T14:55:14;2.78;;;0.90;;
80183;SDS011;69682;52.138;5.440;2023-08-21T14:57:41;2.28;;;0.80;;
80183;SDS011;69682;52.138;5.440;2023-08-21T15:00:07;2.20;;;0.77;;
80183;SDS011;69682;52.138;5.440;2023-08-21T15:02:36;2.95;;;1.02;;
80183;SDS011;69682;52.138;5.440;2023-08-21T15:05:04;1.50;;;0.70;;
80183;SDS011;69682;52.138;5.440;2023-08-21T15:07:31;1.38;;;0.70;;
80183;SDS011;69682;52.138;5.440;2023-08-21T15:09:58;2.47;;;0.95;;